sensor_id;sensor_type;location;lat;lon;timestamp;P1;durP1;ratioP1;P2;durP2;ratioP2
12445;SDS011;6287;50.984;7.022;2023-04-25T00:01:47;4.67;;;2.33;;
12445;SDS011;6287;50.984;7.022;2023-04-25T00:04:13;4.53;;;2.60;;
12445;SDS011;6287;50.984;7.022;2023-04-25T00:06:41;6.33;;;2.40;;
12445;SDS011;6287;50.984;7.022;2023-04-25T00:09:07;3.73;;;2.60;;
12445;SDS011;6287;50.984;7.022;2023-04-25T00:11:34;5.00;;;2.80;;
12445;SDS011;6287;50.984;7.022;2023-04-25T00:14:02;3.17;;;2.57;;
12445;SDS011;6287;50.984;7.022;2023-04-25T00:16:29;4.97;;;2.23;;
12445;SDS011;6287;50.984;7.022;2023-04-25T00:18:58;4.60;;;2.30;;
12445;SDS011;6287;50.984;7.022;2023-04-25T00:21:24;5.03;;;2.30;;
12445;SDS011;6287;50.984;7.022;2023-04-25T00:23:53;6.43;;;2.93;;
12445;SDS011;6287;50.984;7.022;2023-04-25T00:26:18;4.70;;;2.70;;
12445;SDS011;6287;50.984;7.022;2023-04-25T00:28:47;8.00;;;2.87;;
12445;SDS011;6287;50.984;7.022;2023-04-25T00:31:15;6.20;;;2.67;;
12445;SDS011;6287;50.984;7.022;2023-04-25T00:33:41;3.93;;;2.67;;
12445;SDS011;6287;50.984;7.022;2023-04-25T00:36:06;4.60;;;2.90;;
12445;SDS011;6287;50.984;7.022;2023-04-25T00:38:35;7.00;;;2.93;;
12445;SDS011;6287;50.984;7.022;2023-04-25T00:41:00;6.93;;;3.00;;
12445;SDS011;6287;50.984;7.022;2023-04-25T00:43:29;4.27;;;2.73;;
12445;SDS011;6287;50.984;7.022;2023-04-25T00:45:57;7.73;;;3.07;;
12445;SDS011;6287;50.984;7.022;2023-04-25T00:48:27;5.73;;;2.50;;
12445;SDS011;6287;50.984;7.022;2023-04-25T00:50:54;5.63;;;2.80;;
12445;SDS011;6287;50.984;7.022;2023-04-25T00:53:22;7.83;;;2.67;;
12445;SDS011;6287;50.984;7.022;2023-04-25T00:55:50;7.30;;;2.70;;
12445;SDS011;6287;50.984;7.022;2023-04-25T00:58:19;8.40;;;2.50;;
12445;SDS011;6287;50.984;7.022;2023-04-25T01:00:46;7.47;;;3.07;;
12445;SDS011;6287;50.984;7.022;2023-04-25T01:03:16;8.00;;;3.17;;
12445;SDS011;6287;50.984;7.022;2023-04-25T01:05:44;5.83;;;2.93;;
12445;SDS011;6287;50.984;7.022;2023-04-25T01:08:12;5.20;;;2.80;;
12445;SDS011;6287;50.984;7.022;2023-04-25T01:10:41;4.87;;;3.10;;
12445;SDS011;6287;50.984;7.022;2023-04-25T01:13:10;6.57;;;2.80;;
12445;SDS011;6287;50.984;7.022;2023-04-25T01:15:40;7.03;;;2.37;;
12445;SDS011;6287;50.984;7.022;2023-04-25T01:18:06;3.83;;;2.93;;
12445;SDS011;6287;50.984;7.022;2023-04-25T01:20:31;7.73;;;3.20;;
12445;SDS011;6287;50.984;7.022;2023-04-25T01:22:58;8.00;;;3.00;;
12445;SDS011;6287;50.984;7.022;2023-04-25T01:25:24;6.33;;;2.87;;
12445;SDS011;6287;50.984;7.022;2023-04-25T01:27:50;5.43;;;2.83;;
12445;SDS011;6287;50.984;7.022;2023-04-25T01:30:16;5.87;;;2.80;;
12445;SDS011;6287;50.984;7.022;2023-04-25T01:32:44;7.87;;;3.10;;
12445;SDS011;6287;50.984;7.022;2023-04-25T01:35:12;9.43;;;2.67;;
12445;SDS011;6287;50.984;7.022;2023-04-25T01:37:42;3.63;;;2.33;;
12445;SDS011;6287;50.984;7.022;2023-04-25T01:40:09;7.73;;;2.80;;
12445;SDS011;6287;50.984;7.022;2023-04-25T01:42:38;6.97;;;2.90;;
12445;SDS011;6287;50.984;7.022;2023-04-25T01:45:09;4.97;;;2.97;;
12445;SDS011;6287;50.984;7.022;2023-04-25T01:47:38;4.73;;;2.73;;
12445;SDS011;6287;50.984;7.022;2023-04-25T01:50:08;5.50;;;2.43;;
12445;SDS011;6287;50.984;7.022;2023-04-25T01:52:37;5.40;;;3.03;;
12445;SDS011;6287;50.984;7.022;2023-04-25T01:55:05;7.87;;;3.10;;
12445;SDS011;6287;50.984;7.022;2023-04-25T01:57:31;4.50;;;2.70;;
12445;SDS011;6287;50.984;7.022;2023-04-25T01:59:57;6.47;;;2.33;;
12445;SDS011;6287;50.984;7.022;2023-04-25T02:02:27;6.37;;;2.47;;
12445;SDS011;6287;50.984;7.022;2023-04-25T02:04:53;8.20;;;2.90;;
12445;SDS011;6287;50.984;7.022;2023-04-25T02:07:19;8.03;;;2.63;;
12445;SDS011;6287;50.984;7.022;2023-04-25T02:09:47;6.03;;;2.80;;
12445;SDS011;6287;50.984;7.022;2023-04-25T02:12:13;8.20;;;3.37;;
12445;SDS011;6287;50.984;7.022;2023-04-25T02:14:39;4.13;;;2.97;;
12445;SDS011;6287;50.984;7.022;2023-04-25T02:17:04;5.13;;;2.30;;
12445;SDS011;6287;50.984;7.022;2023-04-25T02:19:33;4.43;;;2.60;;
12445;SDS011;6287;50.984;7.022;2023-04-25T02:22:03;10.70;;;2.93;;
12445;SDS011;6287;50.984;7.022;2023-04-25T02:24:28;7.03;;;2.53;;
12445;SDS011;6287;50.984;7.022;2023-04-25T02:27:00;6.33;;;2.43;;
12445;SDS011;6287;50.984;7.022;2023-04-25T02:29:26;6.70;;;3.13;;
12445;SDS011;6287;50.984;7.022;2023-04-25T02:31:52;2.43;;;2.23;;
12445;SDS011;6287;50.984;7.022;2023-04-25T02:34:17;5.47;;;2.53;;
12445;SDS011;6287;50.984;7.022;2023-04-25T02:36:48;4.17;;;2.70;;
12445;SDS011;6287;50.984;7.022;2023-04-25T02:39:18;5.37;;;2.20;;
12445;SDS011;6287;50.984;7.022;2023-04-25T02:41:44;4.13;;;2.33;;
12445;SDS011;6287;50.984;7.022;2023-04-25T02:44:10;5.00;;;2.37;;
12445;SDS011;6287;50.984;7.022;2023-04-25T02:46:35;8.17;;;2.03;;
12445;SDS011;6287;50.984;7.022;2023-04-25T02:49:03;5.70;;;2.50;;
12445;SDS011;6287;50.984;7.022;2023-04-25T02:51:32;4.70;;;2.33;;
12445;SDS011;6287;50.984;7.022;2023-04-25T02:53:59;3.60;;;2.20;;
12445;SDS011;6287;50.984;7.022;2023-04-25T02:56:27;2.87;;;2.17;;
12445;SDS011;6287;50.984;7.022;2023-04-25T02:58:53;2.50;;;1.80;;
12445;SDS011;6287;50.984;7.022;2023-04-25T03:01:18;5.67;;;2.40;;
12445;SDS011;6287;50.984;7.022;2023-04-25T03:03:44;4.00;;;2.33;;
12445;SDS011;6287;50.984;7.022;2023-04-25T03:06:10;4.17;;;2.40;;
12445;SDS011;6287;50.984;7.022;2023-04-25T03:08:36;4.37;;;2.50;;
12445;SDS011;6287;50.984;7.022;2023-04-25T03:11:04;4.57;;;2.30;;
12445;SDS011;6287;50.984;7.022;2023-04-25T03:13:29;4.10;;;2.60;;
12445;SDS011;6287;50.984;7.022;2023-04-25T03:15:57;6.53;;;1.80;;
12445;SDS011;6287;50.984;7.022;2023-04-25T03:18:25;2.57;;;2.00;;
12445;SDS011;6287;50.984;7.022;2023-04-25T03:20:56;2.73;;;1.63;;
12445;SDS011;6287;50.984;7.022;2023-04-25T03:23:24;1.63;;;1.53;;
12445;SDS011;6287;50.984;7.022;2023-04-25T03:25:50;1.60;;;1.50;;
12445;SDS011;6287;50.984;7.022;2023-04-25T03:28:16;2.47;;;1.60;;
12445;SDS011;6287;50.984;7.022;2023-04-25T03:30:44;3.30;;;1.87;;
12445;SDS011;6287;50.984;7.022;2023-04-25T03:33:12;1.73;;;1.20;;
12445;SDS011;6287;50.984;7.022;2023-04-25T03:35:40;1.50;;;1.40;;
12445;SDS011;6287;50.984;7.022;2023-04-25T03:38:07;2.50;;;1.33;;
12445;SDS011;6287;50.984;7.022;2023-04-25T03:40:33;1.57;;;1.47;;
12445;SDS011;6287;50.984;7.022;2023-04-25T03:43:06;3.43;;;1.63;;
12445;SDS011;6287;50.984;7.022;2023-04-25T03:45:36;2.80;;;2.00;;
12445;SDS011;6287;50.984;7.022;2023-04-25T03:48:02;2.20;;;1.47;;
12445;SDS011;6287;50.984;7.022;2023-04-25T03:50:27;3.37;;;1.97;;
12445;SDS011;6287;50.984;7.022;2023-04-25T03:52:55;1.97;;;1.77;;
12445;SDS011;6287;50.984;7.022;2023-04-25T03:55:21;2.77;;;2.17;;
12445;SDS011;6287;50.984;7.022;2023-04-25T03:57:46;4.53;;;2.27;;
12445;SDS011;6287;50.984;7.022;2023-04-25T04:00:14;5.83;;;2.23;;
12445;SDS011;6287;50.984;7.022;2023-04-25T04:02:43;8.03;;;2.07;;
12445;SDS011;6287;50.984;7.022;2023-04-25T04:05:08;4.87;;;2.77;;
12445;SDS011;6287;50.984;7.022;2023-04-25T04:07:34;3.63;;;2.73;;
12445;SDS011;6287;50.984;7.022;2023-04-25T04:10:05;8.17;;;2.80;;
12445;SDS011;6287;50.984;7.022;2023-04-25T04:12:31;5.47;;;2.60;;
12445;SDS011;6287;50.984;7.022;2023-04-25T04:14:57;3.53;;;2.37;;
12445;SDS011;6287;50.984;7.022;2023-04-25T04:17:22;3.37;;;2.40;;
12445;SDS011;6287;50.984;7.022;2023-04-25T04:19:53;4.93;;;3.10;;
12445;SDS011;6287;50.984;7.022;2023-04-25T04:22:21;5.83;;;2.83;;
12445;SDS011;6287;50.984;7.022;2023-04-25T04:24:49;5.63;;;2.63;;
12445;SDS011;6287;50.984;7.022;2023-04-25T04:27:15;8.80;;;3.10;;
12445;SDS011;6287;50.984;7.022;2023-04-25T04:29:47;7.83;;;3.10;;
12445;SDS011;6287;50.984;7.022;2023-04-25T04:32:13;4.33;;;2.97;;
12445;SDS011;6287;50.984;7.022;2023-04-25T04:34:42;6.00;;;3.00;;
12445;SDS011;6287;50.984;7.022;2023-04-25T04:37:08;5.90;;;3.07;;
12445;SDS011;6287;50.984;7.022;2023-04-25T04:39:34;6.63;;;2.87;;
12445;SDS011;6287;50.984;7.022;2023-04-25T04:42:00;6.53;;;2.93;;
12445;SDS011;6287;50.984;7.022;2023-04-25T04:44:29;7.63;;;3.97;;
12445;SDS011;6287;50.984;7.022;2023-04-25T04:46:57;5.97;;;3.30;;
12445;SDS011;6287;50.984;7.022;2023-04-25T04:49:23;4.47;;;2.83;;
12445;SDS011;6287;50.984;7.022;2023-04-25T04:51:49;4.83;;;3.47;;
12445;SDS011;6287;50.984;7.022;2023-04-25T04:54:14;5.83;;;3.10;;
12445;SDS011;6287;50.984;7.022;2023-04-25T04:56:40;9.17;;;3.50;;
12445;SDS011;6287;50.984;7.022;2023-04-25T04:59:09;4.43;;;2.93;;
12445;SDS011;6287;50.984;7.022;2023-04-25T05:01:35;7.13;;;2.83;;
12445;SDS011;6287;50.984;7.022;2023-04-25T05:04:01;8.57;;;3.00;;
12445;SDS011;6287;50.984;7.022;2023-04-25T05:06:30;8.77;;;3.37;;
12445;SDS011;6287;50.984;7.022;2023-04-25T05:08:58;8.83;;;3.47;;
12445;SDS011;6287;50.984;7.022;2023-04-25T05:11:29;5.87;;;3.27;;
12445;SDS011;6287;50.984;7.022;2023-04-25T05:13:57;10.17;;;3.50;;
12445;SDS011;6287;50.984;7.022;2023-04-25T05:16:22;7.50;;;3.23;;
12445;SDS011;6287;50.984;7.022;2023-04-25T05:18:50;3.67;;;2.87;;
12445;SDS011;6287;50.984;7.022;2023-04-25T05:21:18;6.30;;;3.30;;
12445;SDS011;6287;50.984;7.022;2023-04-25T05:23:46;6.57;;;3.47;;
12445;SDS011;6287;50.984;7.022;2023-04-25T05:26:11;9.27;;;3.43;;
12445;SDS011;6287;50.984;7.022;2023-04-25T05:28:39;11.60;;;2.90;;
12445;SDS011;6287;50.984;7.022;2023-04-25T05:31:05;7.60;;;3.17;;
12445;SDS011;6287;50.984;7.022;2023-04-25T05:33:34;6.57;;;3.20;;
12445;SDS011;6287;50.984;7.022;2023-04-25T05:36:02;5.37;;;2.90;;
12445;SDS011;6287;50.984;7.022;2023-04-25T05:38:28;9.17;;;3.77;;
12445;SDS011;6287;50.984;7.022;2023-04-25T05:40:54;9.90;;;3.33;;
12445;SDS011;6287;50.984;7.022;2023-04-25T05:43:22;6.83;;;2.80;;
12445;SDS011;6287;50.984;7.022;2023-04-25T05:45:47;4.67;;;2.87;;
12445;SDS011;6287;50.984;7.022;2023-04-25T05:48:19;7.30;;;3.07;;
12445;SDS011;6287;50.984;7.022;2023-04-25T05:50:47;6.47;;;3.20;;
12445;SDS011;6287;50.984;7.022;2023-04-25T05:53:13;7.57;;;3.17;;
12445;SDS011;6287;50.984;7.022;2023-04-25T05:55:38;4.30;;;2.93;;
12445;SDS011;6287;50.984;7.022;2023-04-25T05:58:04;9.27;;;3.23;;
12445;SDS011;6287;50.984;7.022;2023-04-25T06:00:34;7.60;;;3.10;;
12445;SDS011;6287;50.984;7.022;2023-04-25T06:03:02;8.37;;;3.53;;
12445;SDS011;6287;50.984;7.022;2023-04-25T06:05:28;8.03;;;3.10;;
12445;SDS011;6287;50.984;7.022;2023-04-25T06:07:57;6.30;;;2.80;;
12445;SDS011;6287;50.984;7.022;2023-04-25T06:10:22;9.53;;;3.37;;
12445;SDS011;6287;50.984;7.022;2023-04-25T06:12:48;6.37;;;3.20;;
12445;SDS011;6287;50.984;7.022;2023-04-25T06:15:16;5.80;;;2.63;;
12445;SDS011;6287;50.984;7.022;2023-04-25T06:17:44;9.13;;;2.83;;
12445;SDS011;6287;50.984;7.022;2023-04-25T06:20:09;5.47;;;2.50;;
12445;SDS011;6287;50.984;7.022;2023-04-25T06:22:37;9.87;;;2.90;;
12445;SDS011;6287;50.984;7.022;2023-04-25T06:25:03;6.47;;;2.73;;
12445;SDS011;6287;50.984;7.022;2023-04-25T06:27:32;4.83;;;2.20;;
12445;SDS011;6287;50.984;7.022;2023-04-25T06:30:02;4.47;;;2.60;;
12445;SDS011;6287;50.984;7.022;2023-04-25T06:32:31;7.47;;;3.00;;
12445;SDS011;6287;50.984;7.022;2023-04-25T06:34:59;7.70;;;2.37;;
12445;SDS011;6287;50.984;7.022;2023-04-25T06:37:26;3.83;;;2.37;;
12445;SDS011;6287;50.984;7.022;2023-04-25T06:39:52;7.03;;;3.00;;
12445;SDS011;6287;50.984;7.022;2023-04-25T06:42:19;6.10;;;2.73;;
12445;SDS011;6287;50.984;7.022;2023-04-25T06:44:50;7.57;;;2.60;;
12445;SDS011;6287;50.984;7.022;2023-04-25T06:47:15;10.37;;;2.43;;
12445;SDS011;6287;50.984;7.022;2023-04-25T06:49:41;9.40;;;2.50;;
12445;SDS011;6287;50.984;7.022;2023-04-25T06:52:11;6.27;;;2.17;;
12445;SDS011;6287;50.984;7.022;2023-04-25T06:54:37;6.10;;;2.23;;
12445;SDS011;6287;50.984;7.022;2023-04-25T06:57:02;4.07;;;1.97;;
12445;SDS011;6287;50.984;7.022;2023-04-25T06:59:30;7.47;;;2.50;;
12445;SDS011;6287;50.984;7.022;2023-04-25T07:01:57;4.87;;;1.97;;
12445;SDS011;6287;50.984;7.022;2023-04-25T07:04:23;8.50;;;2.40;;
12445;SDS011;6287;50.984;7.022;2023-04-25T07:06:51;7.63;;;2.13;;
12445;SDS011;6287;50.984;7.022;2023-04-25T07:09:17;3.60;;;1.90;;
12445;SDS011;6287;50.984;7.022;2023-04-25T07:11:42;7.03;;;2.50;;
12445;SDS011;6287;50.984;7.022;2023-04-25T07:14:08;7.27;;;2.23;;
12445;SDS011;6287;50.984;7.022;2023-04-25T07:16:34;5.13;;;2.53;;
12445;SDS011;6287;50.984;7.022;2023-04-25T07:19:00;5.67;;;2.30;;
12445;SDS011;6287;50.984;7.022;2023-04-25T07:21:25;3.80;;;2.40;;
12445;SDS011;6287;50.984;7.022;2023-04-25T07:23:51;4.90;;;2.30;;
12445;SDS011;6287;50.984;7.022;2023-04-25T07:26:17;3.23;;;2.03;;
12445;SDS011;6287;50.984;7.022;2023-04-25T07:28:42;9.13;;;2.27;;
12445;SDS011;6287;50.984;7.022;2023-04-25T07:31:08;8.67;;;2.53;;
12445;SDS011;6287;50.984;7.022;2023-04-25T07:33:34;8.20;;;2.27;;
12445;SDS011;6287;50.984;7.022;2023-04-25T07:36:02;3.50;;;2.13;;
12445;SDS011;6287;50.984;7.022;2023-04-25T07:38:29;6.43;;;2.50;;
12445;SDS011;6287;50.984;7.022;2023-04-25T07:40:57;5.90;;;2.07;;
12445;SDS011;6287;50.984;7.022;2023-04-25T07:43:25;4.23;;;2.20;;
12445;SDS011;6287;50.984;7.022;2023-04-25T07:45:51;5.60;;;2.27;;
12445;SDS011;6287;50.984;7.022;2023-04-25T07:48:17;4.33;;;1.93;;
12445;SDS011;6287;50.984;7.022;2023-04-25T07:50:45;5.50;;;2.23;;
12445;SDS011;6287;50.984;7.022;2023-04-25T07:53:11;3.27;;;1.80;;
12445;SDS011;6287;50.984;7.022;2023-04-25T07:55:37;8.93;;;2.20;;
12445;SDS011;6287;50.984;7.022;2023-04-25T07:58:08;8.60;;;1.90;;
12445;SDS011;6287;50.984;7.022;2023-04-25T08:00:37;9.43;;;2.63;;
12445;SDS011;6287;50.984;7.022;2023-04-25T08:03:03;5.27;;;2.40;;
12445;SDS011;6287;50.984;7.022;2023-04-25T08:05:29;7.90;;;2.53;;
12445;SDS011;6287;50.984;7.022;2023-04-25T08:07:57;5.47;;;2.47;;
12445;SDS011;6287;50.984;7.022;2023-04-25T08:10:22;5.80;;;2.70;;
12445;SDS011;6287;50.984;7.022;2023-04-25T08:12:50;4.03;;;2.17;;
12445;SDS011;6287;50.984;7.022;2023-04-25T08:15:21;6.27;;;2.83;;
12445;SDS011;6287;50.984;7.022;2023-04-25T08:17:48;3.87;;;2.53;;
12445;SDS011;6287;50.984;7.022;2023-04-25T08:20:14;5.13;;;2.60;;
12445;SDS011;6287;50.984;7.022;2023-04-25T08:22:42;5.93;;;2.40;;
12445;SDS011;6287;50.984;7.022;2023-04-25T08:25:10;6.83;;;2.47;;
12445;SDS011;6287;50.984;7.022;2023-04-25T08:27:38;7.13;;;2.20;;
12445;SDS011;6287;50.984;7.022;2023-04-25T08:30:06;5.63;;;1.67;;
12445;SDS011;6287;50.984;7.022;2023-04-25T08:32:36;4.07;;;1.53;;
12445;SDS011;6287;50.984;7.022;2023-04-25T08:35:09;4.47;;;1.47;;
12445;SDS011;6287;50.984;7.022;2023-04-25T08:37:36;2.93;;;1.63;;
12445;SDS011;6287;50.984;7.022;2023-04-25T08:40:04;1.93;;;1.53;;
12445;SDS011;6287;50.984;7.022;2023-04-25T08:42:39;5.57;;;1.77;;
12445;SDS011;6287;50.984;7.022;2023-04-25T08:45:08;3.00;;;1.60;;
12445;SDS011;6287;50.984;7.022;2023-04-25T08:47:34;4.90;;;1.70;;
12445;SDS011;6287;50.984;7.022;2023-04-25T08:50:03;3.97;;;1.47;;
12445;SDS011;6287;50.984;7.022;2023-04-25T08:52:32;1.83;;;1.20;;
12445;SDS011;6287;50.984;7.022;2023-04-25T08:55:11;3.93;;;1.57;;
12445;SDS011;6287;50.984;7.022;2023-04-25T08:57:40;3.43;;;1.40;;
12445;SDS011;6287;50.984;7.022;2023-04-25T09:00:11;3.50;;;1.37;;
12445;SDS011;6287;50.984;7.022;2023-04-25T09:02:42;4.50;;;1.37;;
12445;SDS011;6287;50.984;7.022;2023-04-25T09:05:08;3.60;;;1.37;;
12445;SDS011;6287;50.984;7.022;2023-04-25T09:07:39;9.47;;;4.63;;
12445;SDS011;6287;50.984;7.022;2023-04-25T09:10:05;8.97;;;2.87;;
12445;SDS011;6287;50.984;7.022;2023-04-25T09:12:34;4.73;;;1.97;;
12445;SDS011;6287;50.984;7.022;2023-04-25T09:15:01;4.83;;;1.30;;
12445;SDS011;6287;50.984;7.022;2023-04-25T09:17:31;3.97;;;1.80;;
12445;SDS011;6287;50.984;7.022;2023-04-25T09:20:05;5.17;;;1.73;;
12445;SDS011;6287;50.984;7.022;2023-04-25T09:22:34;4.97;;;1.23;;
12445;SDS011;6287;50.984;7.022;2023-04-25T09:25:03;2.00;;;1.40;;
12445;SDS011;6287;50.984;7.022;2023-04-25T09:27:50;4.07;;;1.53;;
12445;SDS011;6287;50.984;7.022;2023-04-25T09:30:31;3.50;;;1.73;;
12445;SDS011;6287;50.984;7.022;2023-04-25T09:33:04;2.60;;;1.53;;
12445;SDS011;6287;50.984;7.022;2023-04-25T09:35:34;2.90;;;1.73;;
12445;SDS011;6287;50.984;7.022;2023-04-25T09:38:16;3.93;;;1.30;;
12445;SDS011;6287;50.984;7.022;2023-04-25T09:40:44;3.37;;;1.30;;
12445;SDS011;6287;50.984;7.022;2023-04-25T09:43:23;2.20;;;1.30;;
12445;SDS011;6287;50.984;7.022;2023-04-25T09:45:53;3.50;;;1.23;;
12445;SDS011;6287;50.984;7.022;2023-04-25T09:48:24;3.83;;;1.43;;
12445;SDS011;6287;50.984;7.022;2023-04-25T09:51:03;3.67;;;1.33;;
12445;SDS011;6287;50.984;7.022;2023-04-25T09:53:36;3.97;;;1.30;;
12445;SDS011;6287;50.984;7.022;2023-04-25T09:56:06;1.30;;;1.00;;
12445;SDS011;6287;50.984;7.022;2023-04-25T09:58:33;1.17;;;1.00;;
12445;SDS011;6287;50.984;7.022;2023-04-25T10:01:03;1.57;;;1.23;;
12445;SDS011;6287;50.984;7.022;2023-04-25T10:03:31;2.90;;;1.20;;
12445;SDS011;6287;50.984;7.022;2023-04-25T10:06:01;1.67;;;0.90;;
12445;SDS011;6287;50.984;7.022;2023-04-25T10:08:33;4.60;;;1.50;;
12445;SDS011;6287;50.984;7.022;2023-04-25T10:11:03;2.07;;;0.90;;
12445;SDS011;6287;50.984;7.022;2023-04-25T10:13:30;4.00;;;1.17;;
12445;SDS011;6287;50.984;7.022;2023-04-25T10:16:00;1.63;;;1.10;;
12445;SDS011;6287;50.984;7.022;2023-04-25T10:18:30;3.00;;;1.50;;
12445;SDS011;6287;50.984;7.022;2023-04-25T10:20:57;1.87;;;1.10;;
12445;SDS011;6287;50.984;7.022;2023-04-25T10:23:24;1.90;;;1.00;;
12445;SDS011;6287;50.984;7.022;2023-04-25T10:25:51;0.90;;;0.90;;
12445;SDS011;6287;50.984;7.022;2023-04-25T10:28:24;2.47;;;0.90;;
12445;SDS011;6287;50.984;7.022;2023-04-25T10:31:07;2.10;;;1.20;;
12445;SDS011;6287;50.984;7.022;2023-04-25T10:33:34;1.70;;;1.03;;
12445;SDS011;6287;50.984;7.022;2023-04-25T10:36:11;2.20;;;1.00;;
12445;SDS011;6287;50.984;7.022;2023-04-25T10:38:42;1.77;;;1.03;;
12445;SDS011;6287;50.984;7.022;2023-04-25T10:41:09;2.93;;;0.97;;
12445;SDS011;6287;50.984;7.022;2023-04-25T10:43:44;2.20;;;0.90;;
12445;SDS011;6287;50.984;7.022;2023-04-25T10:48:59;1.47;;;0.80;;
12445;SDS011;6287;50.984;7.022;2023-04-25T10:51:32;3.93;;;1.13;;
12445;SDS011;6287;50.984;7.022;2023-04-25T10:56:36;2.87;;;1.20;;
12445;SDS011;6287;50.984;7.022;2023-04-25T10:59:14;3.37;;;1.00;;
12445;SDS011;6287;50.984;7.022;2023-04-25T11:01:51;3.10;;;1.00;;
12445;SDS011;6287;50.984;7.022;2023-04-25T11:04:20;2.70;;;1.20;;
12445;SDS011;6287;50.984;7.022;2023-04-25T11:09:27;1.40;;;0.77;;
12445;SDS011;6287;50.984;7.022;2023-04-25T11:11:56;1.03;;;0.90;;
12445;SDS011;6287;50.984;7.022;2023-04-25T11:14:28;2.53;;;0.73;;
12445;SDS011;6287;50.984;7.022;2023-04-25T11:16:57;2.00;;;1.13;;
12445;SDS011;6287;50.984;7.022;2023-04-25T11:19:23;2.20;;;1.20;;
12445;SDS011;6287;50.984;7.022;2023-04-25T11:21:50;2.13;;;1.07;;
12445;SDS011;6287;50.984;7.022;2023-04-25T11:24:18;1.50;;;0.87;;
12445;SDS011;6287;50.984;7.022;2023-04-25T11:26:46;1.73;;;0.80;;
12445;SDS011;6287;50.984;7.022;2023-04-25T11:29:15;2.47;;;0.90;;
12445;SDS011;6287;50.984;7.022;2023-04-25T11:31:44;2.00;;;0.90;;
12445;SDS011;6287;50.984;7.022;2023-04-25T11:34:16;2.47;;;1.13;;
12445;SDS011;6287;50.984;7.022;2023-04-25T11:36:44;2.27;;;0.83;;
12445;SDS011;6287;50.984;7.022;2023-04-25T11:39:11;0.83;;;0.70;;
12445;SDS011;6287;50.984;7.022;2023-04-25T11:41:39;0.70;;;0.70;;
12445;SDS011;6287;50.984;7.022;2023-04-25T11:44:06;1.83;;;0.87;;
12445;SDS011;6287;50.984;7.022;2023-04-25T11:46:38;0.93;;;0.83;;
12445;SDS011;6287;50.984;7.022;2023-04-25T11:49:10;4.87;;;1.00;;
12445;SDS011;6287;50.984;7.022;2023-04-25T11:51:39;1.00;;;0.67;;
12445;SDS011;6287;50.984;7.022;2023-04-25T11:54:06;1.37;;;0.80;;
12445;SDS011;6287;50.984;7.022;2023-04-25T11:56:32;1.60;;;0.90;;
12445;SDS011;6287;50.984;7.022;2023-04-25T11:58:59;1.43;;;0.80;;
12445;SDS011;6287;50.984;7.022;2023-04-25T12:06:47;1.80;;;1.10;;
12445;SDS011;6287;50.984;7.022;2023-04-25T12:09:17;1.10;;;1.00;;
12445;SDS011;6287;50.984;7.022;2023-04-25T12:11:56;2.80;;;1.08;;
12445;SDS011;6287;50.984;7.022;2023-04-25T12:14:28;0.82;;;0.70;;
12445;SDS011;6287;50.984;7.022;2023-04-25T12:16:56;2.50;;;1.00;;
12445;SDS011;6287;50.984;7.022;2023-04-25T12:19:23;1.48;;;0.82;;
12445;SDS011;6287;50.984;7.022;2023-04-25T12:22:01;2.63;;;0.73;;
12445;SDS011;6287;50.984;7.022;2023-04-25T12:24:33;3.17;;;0.80;;
12445;SDS011;6287;50.984;7.022;2023-04-25T12:27:02;3.00;;;0.88;;
12445;SDS011;6287;50.984;7.022;2023-04-25T12:29:33;0.70;;;0.70;;
12445;SDS011;6287;50.984;7.022;2023-04-25T12:32:00;1.33;;;0.90;;
12445;SDS011;6287;50.984;7.022;2023-04-25T12:34:28;1.57;;;1.03;;
12445;SDS011;6287;50.984;7.022;2023-04-25T12:36:54;2.80;;;0.80;;
12445;SDS011;6287;50.984;7.022;2023-04-25T12:39:20;2.33;;;0.77;;
12445;SDS011;6287;50.984;7.022;2023-04-25T12:41:50;3.07;;;0.93;;
12445;SDS011;6287;50.984;7.022;2023-04-25T12:44:21;0.83;;;0.70;;
12445;SDS011;6287;50.984;7.022;2023-04-25T12:46:49;1.07;;;0.93;;
12445;SDS011;6287;50.984;7.022;2023-04-25T12:49:15;0.80;;;0.70;;
12445;SDS011;6287;50.984;7.022;2023-04-25T12:51:43;0.80;;;0.80;;
12445;SDS011;6287;50.984;7.022;2023-04-25T12:54:09;2.73;;;0.80;;
12445;SDS011;6287;50.984;7.022;2023-04-25T12:56:37;2.73;;;1.10;;
12445;SDS011;6287;50.984;7.022;2023-04-25T12:59:02;2.33;;;1.10;;
12445;SDS011;6287;50.984;7.022;2023-04-25T13:01:30;1.53;;;0.97;;
12445;SDS011;6287;50.984;7.022;2023-04-25T13:03:58;1.60;;;0.90;;
12445;SDS011;6287;50.984;7.022;2023-04-25T13:06:24;3.63;;;0.97;;
12445;SDS011;6287;50.984;7.022;2023-04-25T13:08:49;1.13;;;1.07;;
12445;SDS011;6287;50.984;7.022;2023-04-25T13:11:15;1.10;;;0.90;;
12445;SDS011;6287;50.984;7.022;2023-04-25T13:13:41;2.60;;;0.83;;
12445;SDS011;6287;50.984;7.022;2023-04-25T13:16:11;1.63;;;1.10;;
12445;SDS011;6287;50.984;7.022;2023-04-25T13:18:40;1.57;;;1.00;;
12445;SDS011;6287;50.984;7.022;2023-04-25T13:21:06;1.83;;;0.90;;
12445;SDS011;6287;50.984;7.022;2023-04-25T13:23:36;1.10;;;0.90;;
12445;SDS011;6287;50.984;7.022;2023-04-25T13:26:02;1.33;;;0.77;;
12445;SDS011;6287;50.984;7.022;2023-04-25T13:28:30;2.07;;;0.83;;
12445;SDS011;6287;50.984;7.022;2023-04-25T13:30:58;2.67;;;0.73;;
12445;SDS011;6287;50.984;7.022;2023-04-25T13:33:24;1.42;;;0.90;;
12445;SDS011;6287;50.984;7.022;2023-04-25T13:35:50;1.73;;;1.10;;
12445;SDS011;6287;50.984;7.022;2023-04-25T13:38:23;1.58;;;0.60;;
12445;SDS011;6287;50.984;7.022;2023-04-25T13:40:50;3.45;;;0.88;;
12445;SDS011;6287;50.984;7.022;2023-04-25T13:43:18;1.50;;;1.02;;
12445;SDS011;6287;50.984;7.022;2023-04-25T13:45:49;2.63;;;1.13;;
12445;SDS011;6287;50.984;7.022;2023-04-25T13:48:15;1.75;;;1.52;;
12445;SDS011;6287;50.984;7.022;2023-04-25T13:50:41;2.10;;;1.20;;
12445;SDS011;6287;50.984;7.022;2023-04-25T13:53:09;3.65;;;1.40;;
12445;SDS011;6287;50.984;7.022;2023-04-25T13:55:36;5.60;;;1.25;;
12445;SDS011;6287;50.984;7.022;2023-04-25T13:58:03;1.15;;;1.10;;
12445;SDS011;6287;50.984;7.022;2023-04-25T14:00:33;2.45;;;1.10;;
12445;SDS011;6287;50.984;7.022;2023-04-25T14:03:03;3.60;;;1.40;;
12445;SDS011;6287;50.984;7.022;2023-04-25T14:05:32;3.33;;;1.20;;
12445;SDS011;6287;50.984;7.022;2023-04-25T14:08:02;2.13;;;1.30;;
12445;SDS011;6287;50.984;7.022;2023-04-25T14:10:31;1.45;;;1.20;;
12445;SDS011;6287;50.984;7.022;2023-04-25T14:12:58;1.75;;;1.30;;
12445;SDS011;6287;50.984;7.022;2023-04-25T14:15:25;2.75;;;1.52;;
12445;SDS011;6287;50.984;7.022;2023-04-25T14:17:55;2.67;;;1.40;;
12445;SDS011;6287;50.984;7.022;2023-04-25T14:20:23;2.28;;;1.48;;
12445;SDS011;6287;50.984;7.022;2023-04-25T14:22:51;2.13;;;1.10;;
12445;SDS011;6287;50.984;7.022;2023-04-25T14:25:19;2.00;;;1.30;;
12445;SDS011;6287;50.984;7.022;2023-04-25T14:27:47;0.90;;;0.90;;
12445;SDS011;6287;50.984;7.022;2023-04-25T14:30:18;2.00;;;0.80;;
12445;SDS011;6287;50.984;7.022;2023-04-25T14:32:48;3.07;;;1.23;;
12445;SDS011;6287;50.984;7.022;2023-04-25T14:35:16;1.30;;;1.00;;
12445;SDS011;6287;50.984;7.022;2023-04-25T14:37:44;1.87;;;0.97;;
12445;SDS011;6287;50.984;7.022;2023-04-25T14:40:10;1.07;;;0.70;;
12445;SDS011;6287;50.984;7.022;2023-04-25T14:42:40;2.10;;;0.97;;
12445;SDS011;6287;50.984;7.022;2023-04-25T14:45:08;0.95;;;0.63;;
12445;SDS011;6287;50.984;7.022;2023-04-25T14:47:36;1.67;;;0.60;;
12445;SDS011;6287;50.984;7.022;2023-04-25T14:50:03;1.75;;;0.70;;
12445;SDS011;6287;50.984;7.022;2023-04-25T14:52:34;1.30;;;0.60;;
12445;SDS011;6287;50.984;7.022;2023-04-25T14:55:05;0.93;;;0.50;;
12445;SDS011;6287;50.984;7.022;2023-04-25T14:57:34;2.17;;;0.60;;
12445;SDS011;6287;50.984;7.022;2023-04-25T15:00:00;1.95;;;0.68;;
12445;SDS011;6287;50.984;7.022;2023-04-25T15:02:27;2.80;;;0.60;;
12445;SDS011;6287;50.984;7.022;2023-04-25T15:04:57;1.13;;;0.57;;
12445;SDS011;6287;50.984;7.022;2023-04-25T15:07:26;3.33;;;0.60;;
12445;SDS011;6287;50.984;7.022;2023-04-25T15:09:52;1.25;;;0.68;;
12445;SDS011;6287;50.984;7.022;2023-04-25T15:12:24;2.22;;;0.68;;
12445;SDS011;6287;50.984;7.022;2023-04-25T15:14:53;0.60;;;0.50;;
12445;SDS011;6287;50.984;7.022;2023-04-25T15:17:19;1.15;;;0.70;;
12445;SDS011;6287;50.984;7.022;2023-04-25T15:19:47;1.85;;;0.90;;